Time;durP1;ratioP1;P1;durP2;ratioP2;P2;SDS_P1;SDS_P2;PMS_P1;PMS_P2;Temp;Humidity;BMP_temperature;BMP_pressure;BME280_temperature;BME280_humidity;BME280_pressure;Samples;Min_cycle;Max_cycle;Signal;HPM_P1;HPM_P2
2023/05/30 00:01:39;;;;;;;18.95;4.68;;;12.10;74.60;;;;;;5031084;28;20500;-75
2023/05/30 00:04:05;;;;;;;15.55;4.28;;;12.00;75.00;;;;;;5034431;28;20103;-77
2023/05/30 00:06:31;;;;;;;17.85;6.25;;;12.00;75.00;;;;;;5032365;28;20108;-75
2023/05/30 00:08:57;;;;;;;22.52;5.18;;;12.00;75.10;;;;;;5034148;28;20052;-74
2023/05/30 00:11:23;;;;;;;19.45;4.65;;;12.00;75.00;;;;;;5022876;28;20076;-74
2023/05/30 00:13:50;;;;;;;17.45;4.43;;;11.90;75.20;;;;;;5033121;28;20051;-75
2023/05/30 00:16:19;;;;;;;18.08;5.20;;;11.90;75.40;;;;;;5029109;28;20061;-75
2023/05/30 00:18:47;;;;;;;18.63;4.65;;;11.90;75.60;;;;;;5034367;28;20031;-76
2023/05/30 00:21:14;;;;;;;24.63;5.43;;;11.90;75.60;;;;;;5026716;28;20033;-75
2023/05/30 00:23:39;;;;;;;21.75;5.28;;;11.90;75.70;;;;;;5036285;28;20029;-75
2023/05/30 00:26:09;;;;;;;16.55;4.75;;;11.90;75.90;;;;;;5034506;28;20444;-75
2023/05/30 00:28:36;;;;;;;17.88;4.95;;;11.80;76.20;;;;;;5041618;28;20134;-74
2023/05/30 00:31:02;;;;;;;17.70;4.90;;;11.80;76.20;;;;;;5028634;28;20088;-75
2023/05/30 00:33:28;;;;;;;17.85;4.57;;;11.80;76.20;;;;;;5033765;28;20060;-75
2023/05/30 00:35:53;;;;;;;17.13;4.65;;;11.80;76.40;;;;;;5024918;28;20026;-76
2023/05/30 00:38:20;;;;;;;11.80;3.70;;;11.70;76.50;;;;;;5027079;28;20029;-75
2023/05/30 00:40:46;;;;;;;15.32;4.20;;;11.70;76.60;;;;;;5026130;28;20293;-75
2023/05/30 00:43:11;;;;;;;17.55;4.47;;;11.70;76.60;;;;;;5031345;28;20155;-75
2023/05/30 00:45:37;;;;;;;18.23;4.50;;;11.60;76.90;;;;;;5024380;28;20382;-74
2023/05/30 00:48:04;;;;;;;18.45;5.05;;;11.60;77.00;;;;;;5028912;28;20042;-75
2023/05/30 00:50:31;;;;;;;19.85;4.88;;;11.60;77.00;;;;;;5016431;28;20029;-78
2023/05/30 00:52:58;;;;;;;17.83;4.72;;;11.60;77.00;;;;;;5021389;28;20048;-74
2023/05/30 00:55:25;;;;;;;17.58;4.75;;;11.60;77.10;;;;;;5026311;28;20067;-76
2023/05/30 00:57:51;;;;;;;17.98;5.38;;;11.60;77.30;;;;;;5036290;28;20036;-77
2023/05/30 01:00:17;;;;;;;17.10;4.63;;;11.60;77.50;;;;;;5031560;28;20476;-74
2023/05/30 01:02:44;;;;;;;17.05;4.95;;;11.50;77.50;;;;;;5036949;28;20025;-74
2023/05/30 01:05:12;;;;;;;17.33;4.88;;;11.60;77.40;;;;;;5028230;28;20581;-78
2023/05/30 01:07:41;;;;;;;17.40;6.45;;;11.50;77.40;;;;;;5031436;28;20489;-77
2023/05/30 01:10:07;;;;;;;14.88;4.75;;;11.50;77.60;;;;;;5029804;28;20062;-75
2023/05/30 01:12:44;;;;;;;19.17;5.10;;;11.50;77.70;;;;;;5023854;28;20501;-78
2023/05/30 01:15:17;;;;;;;16.88;4.45;;;11.40;77.90;;;;;;5041058;28;20053;-77
2023/05/30 01:18:01;;;;;;;16.80;4.25;;;11.40;78.10;;;;;;5026437;28;20037;-77
2023/05/30 01:20:32;;;;;;;21.67;4.82;;;11.40;78.10;;;;;;5042089;28;20029;-74
2023/05/30 01:23:15;;;;;;;16.92;5.72;;;11.40;78.20;;;;;;5032383;28;20477;-75
2023/05/30 01:25:54;;;;;;;15.70;5.15;;;11.30;78.40;;;;;;5036201;28;20029;-81
2023/05/30 01:28:22;;;;;;;19.63;4.78;;;11.40;78.50;;;;;;5031180;28;20102;-76
2023/05/30 01:30:53;;;;;;;16.70;5.68;;;11.30;78.50;;;;;;5026578;28;20398;-75
2023/05/30 01:33:22;;;;;;;15.70;4.40;;;11.20;78.70;;;;;;5036574;28;20090;-74
2023/05/30 01:35:48;;;;;;;21.02;5.68;;;11.30;78.80;;;;;;5025925;28;20084;-75
2023/05/30 01:38:14;;;;;;;16.98;5.10;;;11.20;78.90;;;;;;5023161;28;20036;-78
2023/05/30 01:40:46;;;;;;;13.23;4.53;;;11.20;78.90;;;;;;5020578;28;20022;-76
2023/05/30 01:43:41;;;;;;;25.27;5.72;;;11.10;78.90;;;;;;5022664;28;20502;-76
2023/05/30 01:46:18;;;;;;;17.60;5.03;;;11.10;78.90;;;;;;5024541;28;20075;-75
2023/05/30 01:49:01;;;;;;;20.48;5.32;;;11.10;78.70;;;;;;5021550;28;20029;-77
2023/05/30 01:51:56;;;;;;;21.02;4.93;;;11.10;78.60;;;;;;5022703;28;20072;-75
2023/05/30 01:54:24;;;;;;;21.77;5.68;;;11.10;78.40;;;;;;5027313;28;20724;-77
2023/05/30 01:57:08;;;;;;;20.05;5.22;;;11.00;78.60;;;;;;5020570;28;20110;-79
2023/05/30 01:59:34;;;;;;;20.42;5.35;;;11.10;78.60;;;;;;5019810;28;20132;-75
2023/05/30 02:02:01;;;;;;;15.88;4.90;;;11.00;78.90;;;;;;5016937;28;20486;-74
2023/05/30 02:04:27;;;;;;;21.10;5.78;;;11.00;78.70;;;;;;5025968;28;20026;-76
2023/05/30 02:06:53;;;;;;;15.35;5.85;;;11.00;78.60;;;;;;5026276;28;20029;-74
2023/05/30 02:09:18;;;;;;;24.20;5.38;;;11.00;78.60;;;;;;5024964;28;20672;-75
2023/05/30 02:11:44;;;;;;;14.75;4.78;;;10.90;78.60;;;;;;5024313;28;20087;-75
2023/05/30 02:14:10;;;;;;;17.85;4.88;;;10.90;78.50;;;;;;5025247;28;20045;-75
2023/05/30 02:16:36;;;;;;;15.00;4.35;;;10.90;78.40;;;;;;5025901;28;20140;-75
2023/05/30 02:19:02;;;;;;;17.38;5.38;;;10.80;78.20;;;;;;5030518;28;20125;-76
2023/05/30 02:21:28;;;;;;;18.58;5.38;;;10.80;78.30;;;;;;5022705;28;20127;-75
2023/05/30 02:23:54;;;;;;;19.35;5.07;;;10.80;78.30;;;;;;5023697;28;20033;-74
2023/05/30 02:26:20;;;;;;;18.17;5.18;;;10.80;78.20;;;;;;5013899;28;20037;-78
2023/05/30 02:28:46;;;;;;;18.45;5.38;;;10.80;78.30;;;;;;5020276;28;20128;-79
2023/05/30 02:31:12;;;;;;;16.92;4.75;;;10.70;78.30;;;;;;5023126;28;20124;-75
2023/05/30 02:33:37;;;;;;;21.23;5.22;;;10.70;78.40;;;;;;5023733;28;20147;-77
2023/05/30 02:36:03;;;;;;;20.95;5.05;;;10.70;78.60;;;;;;5020672;28;20037;-75
2023/05/30 02:38:29;;;;;;;16.88;4.57;;;10.60;78.80;;;;;;5021299;28;20017;-75
2023/05/30 02:40:54;;;;;;;16.33;4.82;;;10.60;78.80;;;;;;5022691;28;20558;-75
2023/05/30 02:43:20;;;;;;;15.55;4.80;;;10.50;79.10;;;;;;5024102;28;20039;-76
2023/05/30 02:45:46;;;;;;;17.60;4.60;;;10.60;79.20;;;;;;5023307;28;20033;-76
2023/05/30 02:48:11;;;;;;;23.63;5.95;;;10.60;79.10;;;;;;5022313;28;20029;-77
2023/05/30 02:50:37;;;;;;;16.20;4.82;;;10.50;79.10;;;;;;5025342;28;20029;-76
2023/05/30 02:53:03;;;;;;;15.73;4.45;;;10.50;79.20;;;;;;5021728;28;20059;-77
2023/05/30 02:55:29;;;;;;;14.77;5.30;;;10.50;79.20;;;;;;5021492;28;20027;-76
2023/05/30 02:57:54;;;;;;;14.93;4.93;;;10.50;79.30;;;;;;5021484;28;20229;-75
2023/05/30 03:00:20;;;;;;;16.83;5.22;;;10.50;79.40;;;;;;5025007;28;20024;-75
2023/05/30 03:02:46;;;;;;;20.63;5.25;;;10.40;79.50;;;;;;5016508;28;20603;-77
2023/05/30 03:05:12;;;;;;;15.02;4.75;;;10.40;79.60;;;;;;5015842;28;20033;-74
2023/05/30 03:07:37;;;;;;;16.27;4.63;;;10.40;79.80;;;;;;5020287;28;20091;-75
2023/05/30 03:10:04;;;;;;;13.82;4.30;;;10.40;79.80;;;;;;5019097;28;20168;-77
2023/05/30 03:12:30;;;;;;;16.40;5.35;;;10.40;79.80;;;;;;5021946;28;20091;-74
2023/05/30 03:14:56;;;;;;;21.40;5.55;;;10.40;79.90;;;;;;5016564;28;20033;-76
2023/05/30 03:17:22;;;;;;;15.68;5.45;;;10.30;80.10;;;;;;5022041;28;20049;-79
2023/05/30 03:19:49;;;;;;;17.15;5.20;;;10.30;80.10;;;;;;5024321;28;20056;-79
2023/05/30 03:22:15;;;;;;;17.08;4.97;;;10.30;80.10;;;;;;5022800;28;20033;-75
2023/05/30 03:24:40;;;;;;;21.85;6.55;;;10.30;80.20;;;;;;5013058;28;20028;-74
2023/05/30 03:27:07;;;;;;;20.40;5.93;;;10.30;80.20;;;;;;5019934;28;20061;-77
2023/05/30 03:29:33;;;;;;;20.80;5.55;;;10.20;80.20;;;;;;5016512;28;20010;-75
2023/05/30 03:31:59;;;;;;;20.50;6.07;;;10.20;80.40;;;;;;5021236;28;20041;-74
2023/05/30 03:34:25;;;;;;;18.92;5.55;;;10.20;80.30;;;;;;5017327;28;20030;-76
2023/05/30 03:36:52;;;;;;;17.10;5.43;;;10.20;80.60;;;;;;5014071;28;20036;-75
2023/05/30 03:39:21;;;;;;;21.48;6.30;;;10.20;80.60;;;;;;5018175;28;20103;-78
2023/05/30 03:41:47;;;;;;;19.38;5.68;;;10.20;80.80;;;;;;5023569;28;20029;-77
2023/05/30 03:44:13;;;;;;;24.27;6.40;;;10.10;81.00;;;;;;5021259;28;20116;-75
2023/05/30 03:46:39;;;;;;;20.00;6.22;;;10.10;81.00;;;;;;5021719;28;20064;-77
2023/05/30 03:49:05;;;;;;;20.05;6.13;;;10.20;80.90;;;;;;5019730;28;20544;-77
2023/05/30 03:51:30;;;;;;;17.20;5.00;;;10.20;80.80;;;;;;5015735;28;20480;-76
2023/05/30 03:53:56;;;;;;;17.63;5.68;;;10.10;81.00;;;;;;5016363;28;20026;-75
2023/05/30 03:56:22;;;;;;;22.00;5.32;;;10.10;81.00;;;;;;5022047;28;20163;-77
2023/05/30 03:58:48;;;;;;;19.00;6.30;;;10.10;80.90;;;;;;5020739;28;20048;-80
2023/05/30 04:01:14;;;;;;;22.60;6.05;;;10.20;80.90;;;;;;5007785;28;20103;-75
2023/05/30 04:03:42;;;;;;;25.33;6.65;;;10.20;80.90;;;;;;5014771;28;20531;-74
2023/05/30 04:06:08;;;;;;;20.23;5.38;;;10.20;80.80;;;;;;5017023;28;20038;-75
2023/05/30 04:08:36;;;;;;;26.20;6.68;;;10.20;80.60;;;;;;5018997;28;20183;-76
2023/05/30 04:11:02;;;;;;;24.27;5.85;;;10.20;80.70;;;;;;5020897;28;20024;-74
2023/05/30 04:13:28;;;;;;;21.38;6.22;;;10.20;80.90;;;;;;5016068;28;20062;-75
2023/05/30 04:15:54;;;;;;;19.85;6.22;;;10.10;80.90;;;;;;5018503;28;20045;-76
2023/05/30 04:18:20;;;;;;;20.40;5.68;;;10.10;80.90;;;;;;5017904;28;20037;-74
2023/05/30 04:20:45;;;;;;;25.60;6.60;;;10.10;81.10;;;;;;5020014;28;20159;-75
2023/05/30 04:23:11;;;;;;;21.63;7.32;;;10.10;81.10;;;;;;5026340;28;20125;-78
2023/05/30 04:25:37;;;;;;;19.80;6.47;;;10.20;81.20;;;;;;5027211;28;20025;-75
2023/05/30 04:28:05;;;;;;;19.45;6.30;;;10.10;81.10;;;;;;5022920;28;20037;-76
2023/05/30 04:30:33;;;;;;;18.02;6.15;;;10.10;80.90;;;;;;5019862;28;20152;-76
2023/05/30 04:32:59;;;;;;;20.73;6.63;;;10.20;80.90;;;;;;5019826;28;20033;-75
2023/05/30 04:35:25;;;;;;;20.95;5.95;;;10.10;80.90;;;;;;5025120;28;20142;-78
2023/05/30 04:37:53;;;;;;;20.55;6.32;;;10.20;81.00;;;;;;5021027;28;20076;-75
2023/05/30 04:40:19;;;;;;;18.45;5.85;;;10.20;80.80;;;;;;5012933;28;20523;-76
2023/05/30 04:42:51;;;;;;;23.35;7.53;;;10.20;80.80;;;;;;5012006;28;20037;-75
2023/05/30 04:45:18;;;;;;;27.77;7.18;;;10.30;80.50;;;;;;5015909;28;20030;-77
2023/05/30 04:47:45;;;;;;;20.85;6.28;;;10.30;80.60;;;;;;5017240;28;20025;-75
2023/05/30 04:50:12;;;;;;;19.10;5.95;;;10.40;80.60;;;;;;5021980;28;20030;-74
2023/05/30 04:52:37;;;;;;;20.50;6.72;;;10.40;80.50;;;;;;5019144;28;20029;-76
2023/05/30 04:55:03;;;;;;;20.83;7.00;;;10.40;80.10;;;;;;5021165;28;20018;-75
2023/05/30 04:57:29;;;;;;;21.80;6.20;;;10.40;80.30;;;;;;5015188;28;20033;-77
2023/05/30 04:59:55;;;;;;;21.13;7.18;;;10.40;80.20;;;;;;5023481;28;20069;-75
2023/05/30 05:02:21;;;;;;;19.88;6.68;;;10.50;80.00;;;;;;5030787;28;20030;-77
2023/05/30 05:04:47;;;;;;;21.30;6.45;;;10.60;79.70;;;;;;5010925;28;20026;-76
2023/05/30 05:07:12;;;;;;;19.83;5.90;;;10.60;80.00;;;;;;5022120;28;20041;-75
2023/05/30 05:09:38;;;;;;;21.20;6.95;;;10.70;79.50;;;;;;5015152;28;20037;-77
2023/05/30 05:12:04;;;;;;;21.70;6.35;;;10.70;79.20;;;;;;5017129;28;20053;-76
2023/05/30 05:14:30;;;;;;;23.67;6.15;;;10.80;79.10;;;;;;5019723;28;20105;-78
2023/05/30 05:16:57;;;;;;;21.13;5.95;;;11.00;78.40;;;;;;5016372;28;20098;-75
2023/05/30 05:19:22;;;;;;;19.95;6.10;;;11.10;78.10;;;;;;5020819;28;20080;-75
2023/05/30 05:21:48;;;;;;;19.42;6.43;;;11.10;77.90;;;;;;5016096;28;20029;-77
2023/05/30 05:24:14;;;;;;;23.92;6.70;;;11.40;77.20;;;;;;5023681;28;20032;-76
2023/05/30 05:26:39;;;;;;;27.20;6.00;;;11.60;75.80;;;;;;5021047;28;20055;-79
2023/05/30 05:29:05;;;;;;;19.90;5.05;;;11.70;75.40;;;;;;5017649;28;20125;-74
2023/05/30 05:31:33;;;;;;;17.67;6.45;;;11.70;75.10;;;;;;5024584;28;20367;-78
2023/05/30 05:33:58;;;;;;;19.30;6.32;;;11.60;76.10;;;;;;5012428;28;20034;-74
2023/05/30 05:36:24;;;;;;;23.00;6.00;;;11.80;75.30;;;;;;5016447;28;20406;-76
2023/05/30 05:38:50;;;;;;;18.13;6.15;;;12.00;75.10;;;;;;5018720;28;20037;-74
2023/05/30 05:41:16;;;;;;;20.67;6.13;;;12.10;74.30;;;;;;5017280;28;20053;-73
2023/05/30 05:43:41;;;;;;;19.92;5.57;;;12.10;73.70;;;;;;5016802;28;20141;-77
2023/05/30 05:46:07;;;;;;;21.20;5.90;;;12.40;73.30;;;;;;5022702;28;20091;-75
2023/05/30 05:48:33;;;;;;;19.58;6.38;;;12.40;73.30;;;;;;5016279;28;20059;-78
2023/05/30 05:50:59;;;;;;;21.55;6.35;;;12.70;72.50;;;;;;5019190;28;20033;-76
2023/05/30 05:53:24;;;;;;;19.27;5.93;;;13.00;71.10;;;;;;5023974;28;20029;-75
2023/05/30 05:55:50;;;;;;;16.42;5.90;;;12.30;72.90;;;;;;5023126;28;20033;-75
2023/05/30 05:58:15;;;;;;;27.08;6.00;;;12.10;74.10;;;;;;5017397;28;20398;-74
2023/05/30 06:00:41;;;;;;;16.75;5.57;;;12.20;74.10;;;;;;5022060;28;20056;-79
2023/05/30 06:03:07;;;;;;;25.98;6.60;;;12.00;74.60;;;;;;5018207;28;20030;-73
2023/05/30 06:05:33;;;;;;;25.35;7.20;;;12.10;73.90;;;;;;5019775;28;20057;-73
2023/05/30 06:07:58;;;;;;;24.50;6.75;;;12.10;74.50;;;;;;5020610;28;20045;-75
2023/05/30 06:10:25;;;;;;;18.98;6.40;;;12.30;74.10;;;;;;5019196;28;20423;-75
2023/05/30 06:12:51;;;;;;;26.05;6.50;;;12.40;73.80;;;;;;5019956;28;20053;-78
2023/05/30 06:15:17;;;;;;;20.55;6.15;;;12.40;73.30;;;;;;5022084;28;20484;-75
2023/05/30 06:17:42;;;;;;;15.73;5.18;;;12.40;73.30;;;;;;5022370;28;20111;-75
2023/05/30 06:20:09;;;;;;;18.67;6.90;;;12.60;72.90;;;;;;5020441;28;20440;-78
2023/05/30 06:22:35;;;;;;;20.63;6.50;;;12.50;72.00;;;;;;5023391;28;20053;-76
2023/05/30 06:25:01;;;;;;;21.83;6.28;;;12.40;72.70;;;;;;5020179;28;20545;-74
2023/05/30 06:27:26;;;;;;;21.15;6.25;;;12.40;72.40;;;;;;5017160;28;20124;-75
2023/05/30 06:29:55;;;;;;;21.83;6.15;;;12.40;72.60;;;;;;5020369;28;20018;-77
2023/05/30 06:32:21;;;;;;;16.10;5.57;;;12.50;72.90;;;;;;5022052;28;20065;-75
2023/05/30 06:34:46;;;;;;;14.55;5.28;;;12.70;71.80;;;;;;5021720;28;20021;-75
2023/05/30 06:37:15;;;;;;;17.20;5.85;;;12.50;72.40;;;;;;5016918;28;20390;-74
2023/05/30 06:39:41;;;;;;;19.02;6.20;;;12.90;71.90;;;;;;5015521;28;20556;-76
2023/05/30 06:42:09;;;;;;;20.10;5.97;;;12.70;71.60;;;;;;5024058;28;20113;-75
2023/05/30 06:44:35;;;;;;;19.13;5.75;;;12.80;71.40;;;;;;5022443;28;20549;-75
2023/05/30 06:47:00;;;;;;;19.58;5.93;;;13.10;71.10;;;;;;5020683;28;20042;-75
2023/05/30 06:49:26;;;;;;;22.48;6.38;;;13.30;70.00;;;;;;5018445;28;20042;-75
2023/05/30 06:51:52;;;;;;;17.27;6.10;;;13.20;69.60;;;;;;5021822;28;20631;-75
2023/05/30 06:54:17;;;;;;;16.45;5.57;;;13.00;70.20;;;;;;5023239;28;20156;-76
2023/05/30 06:56:43;;;;;;;22.50;6.82;;;13.10;69.60;;;;;;5016783;28;20030;-76
2023/05/30 06:59:09;;;;;;;18.85;6.65;;;13.00;70.20;;;;;;5021361;28;20033;-76
2023/05/30 07:01:35;;;;;;;19.77;6.88;;;13.20;70.70;;;;;;5019658;28;20054;-76
2023/05/30 07:04:01;;;;;;;18.00;7.43;;;13.50;69.50;;;;;;5023684;28;20033;-77
2023/05/30 07:06:26;;;;;;;15.48;6.95;;;13.60;68.30;;;;;;5019886;28;20100;-77
2023/05/30 07:08:52;;;;;;;18.05;7.82;;;13.30;68.70;;;;;;5020434;28;20034;-77
2023/05/30 07:11:18;;;;;;;19.92;7.90;;;13.20;69.20;;;;;;5023105;28;20033;-76
2023/05/30 07:13:43;;;;;;;18.70;6.97;;;13.20;69.20;;;;;;5015972;28;20056;-77
2023/05/30 07:16:09;;;;;;;18.80;6.45;;;13.10;69.60;;;;;;5020385;28;20044;-76
2023/05/30 07:18:35;;;;;;;17.33;7.38;;;13.30;69.40;;;;;;5021404;28;20029;-76
2023/05/30 07:21:01;;;;;;;19.20;6.80;;;13.60;68.70;;;;;;5016057;28;20446;-75
2023/05/30 07:23:27;;;;;;;22.77;7.78;;;13.70;68.00;;;;;;5021552;28;20397;-76
2023/05/30 07:25:53;;;;;;;21.08;7.07;;;13.70;67.70;;;;;;5027466;28;20022;-76
2023/05/30 07:28:20;;;;;;;16.85;7.68;;;13.60;68.40;;;;;;5023618;28;20591;-77
2023/05/30 07:30:46;;;;;;;17.95;7.72;;;13.80;67.60;;;;;;5018455;28;20470;-75
2023/05/30 07:33:12;;;;;;;22.20;8.80;;;13.60;68.10;;;;;;5023092;28;20032;-76
2023/05/30 07:35:38;;;;;;;19.35;8.15;;;13.70;67.10;;;;;;5020604;28;20021;-77
2023/05/30 07:38:03;;;;;;;17.42;8.07;;;14.00;66.70;;;;;;5023758;28;20397;-76
2023/05/30 07:40:29;;;;;;;21.77;8.95;;;14.10;67.00;;;;;;5022509;28;20165;-76
2023/05/30 07:42:55;;;;;;;20.45;9.82;;;13.90;67.50;;;;;;5024135;28;20057;-75
2023/05/30 07:45:21;;;;;;;16.40;7.32;;;14.00;66.60;;;;;;5021061;28;20084;-76
2023/05/30 07:47:46;;;;;;;17.35;6.53;;;14.40;66.40;;;;;;5023960;28;20643;-79
2023/05/30 07:50:12;;;;;;;19.52;7.05;;;14.50;65.60;;;;;;5022660;28;20538;-76
2023/05/30 07:52:38;;;;;;;17.50;6.68;;;14.40;64.60;;;;;;5022630;28;20470;-76
2023/05/30 07:55:04;;;;;;;18.95;6.90;;;14.50;65.20;;;;;;5023194;28;20029;-76
2023/05/30 07:57:30;;;;;;;19.55;6.82;;;14.60;64.50;;;;;;5023824;28;20094;-77
2023/05/30 07:59:56;;;;;;;18.48;8.25;;;14.30;65.40;;;;;;5018227;28;20087;-77
2023/05/30 08:02:25;;;;;;;22.67;9.18;;;14.40;65.40;;;;;;5018433;28;20508;-78
2023/05/30 08:04:55;;;;;;;16.20;7.18;;;14.40;65.80;;;;;;5017434;28;20048;-76
2023/05/30 08:07:21;;;;;;;17.42;7.05;;;14.30;65.20;;;;;;5012288;28;20038;-76
2023/05/30 08:09:46;;;;;;;16.63;7.28;;;14.60;64.00;;;;;;5011573;28;20536;-77
2023/05/30 08:12:19;;;;;;;17.42;7.53;;;14.40;65.00;;;;;;5023228;28;20134;-76
2023/05/30 08:14:46;;;;;;;16.92;6.55;;;14.60;64.40;;;;;;5018537;28;20025;-78
2023/05/30 08:17:15;;;;;;;17.23;7.15;;;15.00;64.00;;;;;;5022159;28;20091;-78
2023/05/30 08:19:42;;;;;;;18.00;7.60;;;15.00;63.80;;;;;;5022548;28;20026;-76
2023/05/30 08:22:10;;;;;;;18.55;7.28;;;15.30;63.20;;;;;;5018356;28;20077;-79
2023/05/30 08:24:36;;;;;;;15.40;6.70;;;15.50;61.80;;;;;;5028803;28;20025;-77
2023/05/30 08:27:03;;;;;;;15.52;7.93;;;15.40;61.60;;;;;;5019830;28;20041;-78
2023/05/30 08:29:30;;;;;;;18.88;6.85;;;15.60;60.50;;;;;;5029364;28;20079;-77
2023/05/30 08:31:56;;;;;;;17.02;7.03;;;15.30;62.10;;;;;;5026566;28;20504;-79
2023/05/30 08:34:24;;;;;;;18.13;7.95;;;15.50;60.60;;;;;;5030729;28;20124;-77
2023/05/30 08:36:52;;;;;;;15.65;8.52;;;15.40;61.50;;;;;;5026371;28;20030;-78
2023/05/30 08:39:18;;;;;;;16.63;7.95;;;15.20;62.20;;;;;;5027635;28;20036;-77
2023/05/30 08:41:44;;;;;;;14.80;7.75;;;15.20;62.90;;;;;;5020168;28;20537;-77
2023/05/30 08:44:10;;;;;;;16.70;7.63;;;15.50;61.60;;;;;;5027861;28;20024;-79
2023/05/30 08:46:42;;;;;;;17.75;7.63;;;15.70;61.70;;;;;;5026337;28;20033;-78
2023/05/30 08:49:20;;;;;;;16.42;7.63;;;15.80;60.30;;;;;;5028004;28;20022;-78
2023/05/30 08:51:48;;;;;;;18.85;7.47;;;15.90;60.10;;;;;;5020066;28;20045;-79
2023/05/30 08:54:21;;;;;;;16.65;7.45;;;15.80;60.10;;;;;;5028649;28;20030;-77
2023/05/30 08:56:55;;;;;;;18.40;7.97;;;16.10;59.50;;;;;;5040650;28;20030;-77
2023/05/30 08:59:24;;;;;;;16.23;7.07;;;16.10;58.30;;;;;;5027188;28;20060;-77
2023/05/30 09:01:50;;;;;;;14.65;6.88;;;16.00;58.80;;;;;;5027067;28;20394;-76
2023/05/30 09:04:16;;;;;;;17.58;7.70;;;15.80;60.00;;;;;;5024102;28;20040;-76
2023/05/30 09:06:45;;;;;;;16.00;7.38;;;16.10;59.80;;;;;;5019996;28;20301;-76
2023/05/30 09:09:13;;;;;;;14.88;7.90;;;16.30;58.60;;;;;;5020502;28;20033;-79
2023/05/30 09:11:41;;;;;;;15.00;8.38;;;16.40;59.90;;;;;;5025990;28;20494;-80
2023/05/30 09:14:08;;;;;;;16.58;7.80;;;16.10;59.60;;;;;;5035963;28;20164;-78
2023/05/30 09:16:34;;;;;;;17.98;8.02;;;16.50;60.10;;;;;;5028083;28;20030;-76
2023/05/30 09:19:00;;;;;;;15.73;8.02;;;16.60;58.90;;;;;;5024743;28;20025;-78
2023/05/30 09:21:26;;;;;;;18.77;8.40;;;16.60;59.30;;;;;;5028039;28;20040;-77
2023/05/30 09:23:52;;;;;;;13.88;7.47;;;16.70;59.50;;;;;;5021322;28;20462;-76
2023/05/30 09:26:18;;;;;;;13.95;8.13;;;16.60;59.00;;;;;;5028123;28;20041;-77
2023/05/30 09:28:47;;;;;;;15.82;6.97;;;16.70;59.90;;;;;;5027625;28;20031;-76
2023/05/30 09:31:14;;;;;;;18.25;9.43;;;16.80;59.50;;;;;;5020013;28;20038;-76
2023/05/30 09:33:42;;;;;;;19.60;9.90;;;16.70;59.80;;;;;;5021595;28;20052;-76
2023/05/30 09:36:08;;;;;;;19.33;9.35;;;16.60;59.50;;;;;;5020601;28;20037;-75
2023/05/30 09:38:34;;;;;;;19.08;9.43;;;16.90;60.10;;;;;;5018910;28;20398;-75
2023/05/30 09:41:03;;;;;;;16.27;8.93;;;17.10;58.80;;;;;;5023194;28;20038;-75
2023/05/30 09:43:36;;;;;;;20.95;9.57;;;17.10;59.30;;;;;;5020549;28;20473;-75
2023/05/30 09:46:04;;;;;;;17.47;8.37;;;17.00;58.90;;;;;;5024526;28;20409;-76
2023/05/30 09:48:30;;;;;;;16.75;8.60;;;17.10;57.80;;;;;;5024643;28;20380;-75
2023/05/30 09:51:00;;;;;;;16.38;8.10;;;16.90;58.30;;;;;;5024210;28;20061;-75
2023/05/30 09:53:31;;;;;;;18.75;10.27;;;17.20;57.70;;;;;;5018930;28;20045;-76
2023/05/30 09:55:57;;;;;;;15.82;9.40;;;17.30;58.90;;;;;;5021591;28;20021;-77
2023/05/30 09:58:23;;;;;;;20.67;11.05;;;17.40;57.30;;;;;;5020493;28;20026;-76
2023/05/30 10:00:54;;;;;;;16.92;9.35;;;17.60;57.70;;;;;;5024456;28;20121;-75
2023/05/30 10:03:21;;;;;;;15.23;9.38;;;17.80;57.30;;;;;;5023798;28;20025;-75
2023/05/30 10:05:47;;;;;;;17.90;9.20;;;17.30;58.10;;;;;;5026217;28;20631;-76
2023/05/30 10:08:13;;;;;;;17.33;8.18;;;17.40;58.70;;;;;;5024084;28;20563;-77
2023/05/30 10:10:40;;;;;;;17.48;8.60;;;17.30;57.70;;;;;;5022224;28;20076;-78
2023/05/30 10:13:07;;;;;;;15.60;8.43;;;17.60;57.40;;;;;;5020876;28;20180;-75
2023/05/30 10:15:33;;;;;;;16.20;9.77;;;17.70;57.50;;;;;;5024110;28;20025;-75
2023/05/30 10:18:08;;;;;;;20.85;9.88;;;17.80;57.70;;;;;;5024256;28;20040;-75
2023/05/30 10:20:41;;;;;;;26.58;12.98;;;17.80;56.80;;;;;;5022439;28;20092;-75
2023/05/30 10:23:08;;;;;;;16.42;8.93;;;17.70;57.30;;;;;;5024321;28;20037;-76
2023/05/30 10:25:41;;;;;;;18.45;9.02;;;17.60;57.10;;;;;;5029042;28;20021;-76
2023/05/30 10:28:07;;;;;;;16.55;9.30;;;17.70;57.80;;;;;;5026262;28;20049;-76
2023/05/30 10:30:33;;;;;;;17.35;9.88;;;18.20;58.40;;;;;;5024709;28;20460;-76
2023/05/30 10:33:10;;;;;;;18.02;10.85;;;18.40;56.10;;;;;;5021042;28;20040;-77
2023/05/30 10:35:37;;;;;;;19.75;10.90;;;18.30;56.40;;;;;;5016867;28;20034;-75
2023/05/30 10:38:05;;;;;;;17.63;9.55;;;18.10;57.40;;;;;;5016373;28;20060;-76
2023/05/30 10:40:46;;;;;;;17.67;9.57;;;18.10;57.70;;;;;;5016956;28;20060;-79
2023/05/30 10:43:25;;;;;;;18.48;9.70;;;18.30;57.60;;;;;;5001616;28;20593;-75
2023/05/30 10:46:00;;;;;;;16.65;9.48;;;18.20;57.40;;;;;;5007135;28;20036;-75
2023/05/30 10:48:44;;;;;;;;;;;18.30;56.10;;;;;;4995483;28;20071;-75
2023/05/30 10:51:11;;;;;;;18.00;9.95;;;18.10;55.50;;;;;;4994488;28;20285;-75
2023/05/30 10:53:44;;;;;;;17.60;10.55;;;18.20;57.00;;;;;;5009036;28;20406;-76
2023/05/30 10:56:35;;;;;;;18.00;10.60;;;18.30;55.70;;;;;;5005087;28;20029;-75
2023/05/30 10:59:02;;;;;;;20.33;10.43;;;18.20;54.90;;;;;;5003622;28;20066;-75
2023/05/30 11:01:34;;;;;;;17.85;10.70;;;18.00;56.40;;;;;;4998441;28;20042;-74
2023/05/30 11:04:07;;;;;;;18.73;10.75;;;18.10;56.30;;;;;;5010186;28;20077;-75
2023/05/30 11:06:40;;;;;;;16.33;9.65;;;18.30;55.30;;;;;;5003553;28;20092;-77
2023/05/30 11:09:16;;;;;;;19.02;9.25;;;18.60;55.30;;;;;;5013614;28;20029;-75
2023/05/30 11:11:52;;;;;;;17.25;9.85;;;18.70;54.30;;;;;;4998682;28;20402;-77
2023/05/30 11:14:30;;;;;;;19.08;10.65;;;18.80;53.70;;;;;;5002924;28;20026;-75
2023/05/30 11:17:00;;;;;;;17.73;9.50;;;18.60;54.60;;;;;;5006721;28;20030;-75
2023/05/30 11:19:32;;;;;;;14.55;9.63;;;18.60;55.10;;;;;;4997285;28;20109;-75
2023/05/30 11:22:00;;;;;;;15.50;10.05;;;18.60;54.00;;;;;;5012749;28;20049;-75
2023/05/30 11:24:28;;;;;;;19.40;10.02;;;18.10;55.50;;;;;;5000003;28;20025;-75
2023/05/30 11:26:54;;;;;;;16.63;10.77;;;18.10;55.70;;;;;;5008311;28;20482;-76
2023/05/30 11:29:36;;;;;;;18.80;9.45;;;18.50;55.50;;;;;;5005784;28;20026;-74
2023/05/30 11:32:05;;;;;;;15.85;9.25;;;19.10;52.70;;;;;;4994254;28;20062;-78
2023/05/30 11:34:30;;;;;;;17.27;9.45;;;19.20;53.40;;;;;;5014947;28;20449;-76
2023/05/30 11:36:56;;;;;;;16.73;9.82;;;19.40;51.90;;;;;;5004266;28;20399;-75
2023/05/30 11:39:22;;;;;;;18.05;10.55;;;19.00;53.40;;;;;;5005828;28;20108;-76
2023/05/30 11:41:48;;;;;;;15.95;9.15;;;18.70;53.40;;;;;;5009575;28;20113;-75
2023/05/30 11:44:14;;;;;;;19.35;10.27;;;19.00;54.30;;;;;;5001999;28;20021;-76
2023/05/30 11:46:41;;;;;;;17.13;10.20;;;18.70;54.60;;;;;;5001476;28;20034;-75
2023/05/30 11:49:07;;;;;;;20.40;10.43;;;18.80;54.70;;;;;;5017363;28;20580;-76
2023/05/30 11:51:33;;;;;;;24.90;10.65;;;18.80;54.90;;;;;;5004415;28;20034;-75
2023/05/30 11:53:59;;;;;;;16.33;10.82;;;18.60;54.20;;;;;;5003387;28;20037;-75
2023/05/30 11:56:29;;;;;;;17.95;10.23;;;18.80;54.30;;;;;;5003985;28;20033;-75
2023/05/30 11:58:58;;;;;;;19.80;9.80;;;19.10;54.10;;;;;;5013327;28;20092;-76
2023/05/30 12:01:25;;;;;;;18.25;10.52;;;19.10;53.40;;;;;;5005467;28;20061;-75
2023/05/30 12:03:53;;;;;;;19.15;9.25;;;18.80;53.10;;;;;;5001149;28;20104;-75
2023/05/30 12:06:19;;;;;;;16.55;10.38;;;18.80;54.00;;;;;;5004472;28;20447;-75
2023/05/30 12:08:46;;;;;;;20.13;9.52;;;19.20;52.50;;;;;;5011662;28;20040;-76
2023/05/30 12:11:16;;;;;;;18.35;10.13;;;19.30;52.50;;;;;;4999598;28;20109;-76
2023/05/30 12:13:42;;;;;;;19.52;10.27;;;19.10;52.70;;;;;;5009324;28;20096;-76
2023/05/30 12:16:13;;;;;;;19.08;10.80;;;19.00;54.60;;;;;;4996581;28;20034;-76
2023/05/30 12:18:39;;;;;;;16.85;9.32;;;19.50;53.10;;;;;;5009636;28;20025;-75
2023/05/30 12:21:06;;;;;;;16.48;9.52;;;19.50;52.60;;;;;;5003004;28;20129;-75
2023/05/30 12:23:32;;;;;;;16.92;8.75;;;19.80;51.80;;;;;;5011494;28;20108;-76
2023/05/30 12:25:58;;;;;;;18.45;10.40;;;19.90;52.00;;;;;;4999733;28;20026;-76
2023/05/30 12:28:24;;;;;;;20.42;10.07;;;19.60;52.30;;;;;;4995686;28;20052;-75
2023/05/30 12:30:54;;;;;;;18.80;9.90;;;19.90;52.40;;;;;;5007702;28;20022;-76
2023/05/30 12:33:24;;;;;;;17.77;8.93;;;20.00;51.20;;;;;;4998862;28;20040;-78
2023/05/30 12:35:54;;;;;;;14.20;8.50;;;20.10;51.10;;;;;;5000385;28;20189;-79
2023/05/30 12:38:21;;;;;;;20.83;10.13;;;20.00;51.50;;;;;;5001040;28;20025;-76